Time;durP1;ratioP1;P1;durP2;ratioP2;P2;SDS_P1;SDS_P2;PMS_P1;PMS_P2;Temp;Humidity;BMP_temperature;BMP_pressure;BME280_temperature;BME280_humidity;BME280_pressure;Samples;Min_cycle;Max_cycle;Signal;HPM_P1;HPM_P2
2023/05/25 04:32:44;;;;;;;20.15;5.00;;;;;;;5.75;86.26;96989.81;2083540;28;20561;-54
2023/05/25 04:33:46;;;;;;;11.48;4.35;;;;;;;5.73;86.24;96992.44;2080909;28;20296;-54
2023/05/25 07:13:31;;;;;;;16.85;5.32;;;;;;;12.38;66.16;97092.91;2090663;28;20563;-56
2023/05/25 07:15:36;;;;;;;19.42;5.10;;;;;;;12.09;67.86;97087.19;2085236;28;20565;-56
2023/05/25 07:17:40;;;;;;;18.08;5.63;;;;;;;11.93;67.30;97083.50;2089592;28;21037;-56
2023/05/25 07:21:09;;;;;;;23.05;6.03;;;;;;;12.17;67.50;97099.09;2092449;27;20563;-56
2023/05/25 07:23:17;;;;;;;19.50;5.80;;;;;;;12.02;67.93;97085.72;2085782;28;20569;-58
2023/05/25 07:25:42;;;;;;;20.60;6.35;;;;;;;12.33;67.04;97083.53;2082583;28;20572;-56
2023/05/25 07:26:44;;;;;;;17.15;5.43;;;;;;;12.44;66.50;97104.84;2081896;28;20201;-56
2023/05/25 07:27:53;;;;;;;22.70;6.25;;;;;;;12.42;66.70;97088.38;2082195;28;20239;-56
2023/05/25 07:28:55;;;;;;;17.48;5.63;;;;;;;12.71;66.47;97100.16;2082320;28;20209;-57
2023/05/25 07:29:56;;;;;;;19.65;6.03;;;;;;;12.70;66.14;97089.75;2077718;28;20233;-57
2023/05/25 07:30:58;;;;;;;20.50;6.10;;;;;;;12.93;65.68;97100.94;2078669;28;20216;-57
2023/05/25 07:31:59;;;;;;;21.58;6.22;;;;;;;12.68;65.82;97097.66;2083256;28;20208;-56
2023/05/25 07:33:01;;;;;;;22.70;5.93;;;;;;;12.80;65.90;97096.25;2082944;28;20197;-56
2023/05/25 07:34:02;;;;;;;17.38;6.57;;;;;;;12.87;66.23;97099.44;2082697;28;20732;-56
2023/05/25 07:35:04;;;;;;;18.67;5.65;;;;;;;13.06;65.50;97105.53;2082406;28;20200;-56
2023/05/25 07:36:07;;;;;;;33.63;6.40;;;;;;;13.06;64.71;97108.16;2081464;28;20846;-56
2023/05/25 07:37:08;;;;;;;18.90;5.85;;;;;;;13.25;64.10;97102.00;2082548;28;20208;-56
2023/05/25 07:38:10;;;;;;;24.75;6.32;;;;;;;13.13;63.93;97089.47;2082406;28;20638;-56
2023/05/25 07:39:11;;;;;;;17.00;5.45;;;;;;;13.27;64.49;97099.31;2080184;28;20196;-58
2023/05/25 07:40:13;;;;;;;25.33;5.93;;;;;;;13.28;64.82;97104.50;2081737;28;20328;-56
2023/05/25 07:41:14;;;;;;;14.75;5.35;;;;;;;13.00;65.22;97108.44;2080089;28;20197;-56
2023/05/25 07:42:19;;;;;;;20.63;6.70;;;;;;;13.00;65.74;97102.31;2079429;28;20300;-56
2023/05/25 07:43:21;;;;;;;15.73;5.57;;;;;;;13.22;65.07;97107.41;2081821;28;20193;-56
2023/05/25 07:44:22;;;;;;;27.92;5.97;;;;;;;13.15;64.84;97098.13;2081685;28;20221;-56
2023/05/25 07:45:24;;;;;;;14.55;5.55;;;;;;;13.20;64.89;97112.72;2089315;28;20213;-56
2023/05/25 07:46:26;;;;;;;21.10;5.28;;;;;;;13.39;65.54;97098.75;2089610;28;20197;-56
2023/05/25 07:47:27;;;;;;;19.80;6.60;;;;;;;13.43;65.49;97094.19;2081623;28;20193;-56
2023/05/25 07:48:29;;;;;;;25.02;6.32;;;;;;;13.43;64.82;97094.19;2082896;28;20235;-56
2023/05/25 07:49:31;;;;;;;18.15;5.88;;;;;;;13.28;65.30;97107.13;2081619;28;20221;-56
2023/05/25 07:50:32;;;;;;;17.55;6.05;;;;;;;13.54;64.89;97107.66;2081536;28;20194;-56
2023/05/25 07:51:34;;;;;;;23.02;6.05;;;;;;;13.62;64.50;97097.59;2082670;28;20208;-56
2023/05/25 07:52:37;;;;;;;22.95;6.47;;;;;;;13.61;64.27;97108.19;2078316;28;20821;-56
2023/05/25 07:53:38;;;;;;;24.95;6.22;;;;;;;13.84;63.88;97110.50;2080817;28;20366;-56
2023/05/25 07:54:40;;;;;;;17.55;6.18;;;;;;;13.91;64.22;97110.22;2077613;28;20445;-56
2023/05/25 07:55:41;;;;;;;21.98;5.40;;;;;;;13.87;64.62;97101.63;2080658;28;20206;-56
2023/05/25 07:56:43;;;;;;;17.42;6.28;;;;;;;13.92;64.11;97110.13;2082611;28;20197;-56
2023/05/25 07:57:45;;;;;;;27.23;6.45;;;;;;;14.04;64.02;97108.63;2082191;28;20201;-56
2023/05/25 07:58:47;;;;;;;20.35;6.22;;;;;;;14.07;64.06;97110.25;2081811;28;20336;-56
2023/05/25 07:59:49;;;;;;;19.20;5.00;;;;;;;14.20;62.87;97117.44;2081464;28;20221;-56
2023/05/25 08:00:50;;;;;;;22.52;6.72;;;;;;;14.20;62.85;97109.53;2081559;28;20206;-56
2023/05/25 08:01:52;;;;;;;20.15;5.45;;;;;;;14.13;62.68;97117.81;2082147;28;20557;-56
2023/05/25 08:02:54;;;;;;;21.20;5.35;;;;;;;14.13;62.89;97121.31;2082023;28;20193;-56
2023/05/25 08:03:56;;;;;;;26.83;6.57;;;;;;;14.13;63.38;97099.44;2082157;28;20288;-56
2023/05/25 08:05:03;;;;;;;20.85;6.47;;;;;;;14.39;63.26;97110.38;2080935;28;20300;-57
2023/05/25 08:06:05;;;;;;;20.77;5.65;;;;;;;14.37;63.47;97113.06;2081615;28;20193;-56
2023/05/25 08:07:07;;;;;;;17.42;5.68;;;;;;;14.32;63.60;97115.09;2082214;28;21033;-56
2023/05/25 08:08:09;;;;;;;18.40;6.35;;;;;;;14.42;62.67;97116.31;2082006;28;20284;-56
2023/05/25 08:09:12;;;;;;;16.65;4.80;;;;;;;14.41;63.00;97108.50;2081379;28;20270;-56
2023/05/25 08:10:13;;;;;;;19.45;6.55;;;;;;;14.52;62.27;97122.78;2081905;28;20263;-57
2023/05/25 08:11:15;;;;;;;22.88;6.00;;;;;;;14.77;62.15;97107.53;2081366;28;20201;-56
2023/05/25 08:12:17;;;;;;;25.40;6.70;;;;;;;14.73;62.48;97108.59;2082320;28;20202;-56
2023/05/25 08:13:21;;;;;;;15.43;6.18;;;;;;;14.81;61.97;97114.28;2079120;28;20229;-56
2023/05/25 08:14:23;;;;;;;21.52;5.63;;;;;;;15.01;61.85;97108.78;2078748;28;20226;-56
2023/05/25 08:15:25;;;;;;;21.55;6.35;;;;;;;15.22;61.46;97107.69;2080776;28;20198;-56
2023/05/25 08:16:26;;;;;;;17.40;5.07;;;;;;;15.43;60.90;97103.84;2081948;28;20262;-56
2023/05/25 08:17:28;;;;;;;15.65;5.50;;;;;;;15.45;61.18;97103.75;2078058;28;20250;-56
2023/05/25 08:18:30;;;;;;;15.15;5.55;;;;;;;15.62;60.46;97108.06;2079454;28;20197;-56
2023/05/25 08:19:31;;;;;;;14.57;5.97;;;;;;;15.67;60.63;97111.28;2077402;28;20224;-56
2023/05/25 08:20:33;;;;;;;30.50;5.72;;;;;;;15.92;60.09;97112.50;2078724;28;20204;-56
2023/05/25 08:21:36;;;;;;;21.20;5.78;;;;;;;15.95;58.96;97120.22;2081886;28;20294;-57
2023/05/25 08:22:38;;;;;;;16.58;5.40;;;;;;;15.28;60.25;97123.97;2077946;28;20249;-56
2023/05/25 08:23:41;;;;;;;20.92;6.43;;;;;;;15.68;60.05;97120.88;2078755;28;20209;-55
2023/05/25 08:24:43;;;;;;;19.98;6.30;;;;;;;16.02;59.15;97115.44;2081110;28;20230;-56
2023/05/25 08:25:44;;;;;;;26.20;6.03;;;;;;;16.20;58.45;97121.38;2083282;28;20749;-56
2023/05/25 08:26:47;;;;;;;21.25;6.50;;;;;;;16.30;58.85;97115.50;2082659;28;20207;-56
2023/05/25 08:27:55;;;;;;;17.02;6.13;;;;;;;16.35;58.22;97085.38;2089188;28;20594;-56
2023/05/25 08:28:56;;;;;;;25.10;7.35;;;;;;;16.82;57.77;97115.84;2088923;28;20876;-56
2023/05/25 08:29:58;;;;;;;25.83;6.18;;;;;;;17.06;56.86;97115.28;2081029;28;20771;-56
2023/05/25 08:31:00;;;;;;;20.58;6.25;;;;;;;17.28;56.80;97112.97;2082090;28;20197;-56
2023/05/25 08:32:01;;;;;;;19.75;6.85;;;;;;;16.92;56.24;97111.72;2081321;28;20208;-56
2023/05/25 08:33:04;;;;;;;15.85;6.45;;;;;;;17.04;57.51;97112.75;2089224;28;20403;-56
2023/05/25 08:34:05;;;;;;;15.80;5.65;;;;;;;17.11;57.23;97115.84;2088390;28;20204;-56
2023/05/25 08:35:07;;;;;;;15.98;6.30;;;;;;;17.20;57.63;97114.41;2079874;28;20206;-56
2023/05/25 08:36:09;;;;;;;20.25;6.30;;;;;;;17.24;57.50;97116.75;2083368;28;20200;-56
2023/05/25 08:37:11;;;;;;;22.13;5.82;;;;;;;17.18;57.07;97117.16;2076636;28;20205;-56
2023/05/25 08:38:12;;;;;;;20.48;6.80;;;;;;;17.29;56.79;97106.75;2075621;28;20734;-56
2023/05/25 08:39:14;;;;;;;18.77;5.85;;;;;;;17.27;56.57;97121.81;2071991;28;20194;-56
2023/05/25 08:40:19;;;;;;;20.75;5.85;;;;;;;17.01;57.04;97118.19;2073938;28;20202;-56
2023/05/25 08:41:21;;;;;;;22.85;6.50;;;;;;;17.24;56.76;97123.81;2075052;28;20199;-56
2023/05/25 08:42:23;;;;;;;16.52;6.22;;;;;;;17.54;56.87;97123.63;2075849;28;20240;-56
2023/05/25 08:43:24;;;;;;;13.80;5.65;;;;;;;17.59;56.86;97118.03;2074993;28;20205;-56
2023/05/25 08:44:26;;;;;;;20.77;5.65;;;;;;;17.81;56.34;97128.03;2073363;28;20225;-56
2023/05/25 08:45:27;;;;;;;13.85;5.20;;;;;;;17.91;56.88;97130.91;2075895;28;20225;-56
2023/05/25 08:46:48;;;;;;;20.35;6.50;;;;;;;17.84;56.99;97117.28;2075299;28;20198;-56
2023/05/25 08:47:54;;;;;;;18.00;6.18;;;;;;;18.24;55.82;97132.25;2076373;28;20643;-57
2023/05/25 08:49:05;;;;;;;15.95;6.43;;;;;;;18.10;55.49;97134.03;2075694;28;20211;-57
2023/05/25 08:50:08;;;;;;;30.58;6.53;;;;;;;18.15;57.18;97132.91;2077349;28;20297;-56
2023/05/25 08:51:12;;;;;;;29.63;6.85;;;;;;;18.32;56.16;97131.72;2077512;28;20220;-56
2023/05/25 08:52:15;;;;;;;17.83;5.60;;;;;;;18.26;55.31;97128.56;2074602;28;20202;-56
2023/05/25 08:53:17;;;;;;;22.15;5.90;;;;;;;18.39;55.07;97138.31;2074185;28;20218;-57
2023/05/25 08:54:23;;;;;;;24.80;5.80;;;;;;;18.50;55.52;97130.47;2072859;28;20332;-56
2023/05/25 08:55:30;;;;;;;17.02;5.50;;;;;;;18.45;55.34;97132.59;2075894;28;20230;-56
2023/05/25 08:56:35;;;;;;;19.73;6.32;;;;;;;18.53;55.46;97113.56;2076980;28;20774;-56
2023/05/25 08:57:52;;;;;;;14.20;6.07;;;;;;;18.53;55.68;97124.13;2075223;28;20198;-56
2023/05/25 08:59:02;;;;;;;25.30;7.35;;;;;;;18.53;54.86;97134.72;2072422;28;20224;-56
2023/05/25 09:00:11;;;;;;;24.75;6.22;;;;;;;18.57;55.45;97130.91;2073170;28;20916;-56
2023/05/25 09:01:17;;;;;;;18.17;7.03;;;;;;;18.04;54.96;97117.75;2073657;28;20194;-56
2023/05/25 09:02:54;;;;;;;26.00;6.97;;;;;;;18.02;56.27;97131.06;2075547;28;20202;-57
2023/05/25 09:03:58;;;;;;;17.65;6.15;;;;;;;18.56;55.94;97124.78;2075059;28;20194;-57
2023/05/25 09:05:01;;;;;;;25.08;7.43;;;;;;;18.53;54.56;97119.69;2076079;28;20229;-56
2023/05/25 09:06:03;;;;;;;22.48;6.32;;;;;;;18.72;54.84;97118.41;2075212;28;20727;-56
2023/05/25 09:07:05;;;;;;;18.27;6.38;;;;;;;18.43;54.87;97134.50;2071596;28;20199;-56
2023/05/25 09:08:12;;;;;;;19.05;5.93;;;;;;;18.77;55.14;97125.06;2077679;28;20619;-56
2023/05/25 09:09:14;;;;;;;14.77;5.43;;;;;;;19.20;54.37;97131.78;2077432;28;20251;-57
2023/05/25 09:10:16;;;;;;;16.40;6.35;;;;;;;19.47;52.84;97124.59;2077684;28;20283;-56
2023/05/25 09:11:19;;;;;;;20.13;6.07;;;;;;;19.52;53.22;97125.94;2074306;28;20201;-57
2023/05/25 09:12:38;;;;;;;17.50;6.68;;;;;;;19.89;52.70;97119.75;2076437;28;20236;-56
2023/05/25 09:13:39;;;;;;;16.88;5.10;;;;;;;19.77;52.15;97123.28;2076391;28;20194;-56
2023/05/25 09:14:46;;;;;;;23.63;6.55;;;;;;;19.70;53.51;97125.53;2075168;28;20249;-56
2023/05/25 09:15:48;;;;;;;16.73;6.60;;;;;;;19.83;52.48;97128.16;2075964;28;20452;-57
2023/05/25 09:16:50;;;;;;;19.88;6.20;;;;;;;19.91;52.21;97133.72;2072221;28;20207;-56
2023/05/25 09:17:51;;;;;;;22.42;6.72;;;;;;;19.56;52.14;97132.69;2074056;28;20274;-56
2023/05/25 09:18:53;;;;;;;14.50;5.80;;;;;;;19.69;51.93;97134.44;2072325;28;20230;-57
2023/05/25 09:19:55;;;;;;;27.77;6.88;;;;;;;19.61;52.59;97128.88;2074363;28;20253;-57
2023/05/25 09:20:56;;;;;;;20.88;6.75;;;;;;;19.65;52.38;97125.88;2076153;28;20205;-57
2023/05/25 09:21:59;;;;;;;22.58;6.20;;;;;;;19.83;52.34;97138.75;2076839;28;20193;-57
2023/05/25 09:23:16;;;;;;;24.02;6.30;;;;;;;19.81;53.02;97125.59;2076273;28;20199;-57
2023/05/25 09:24:17;;;;;;;18.17;6.32;;;;;;;19.67;52.51;97126.59;2075848;28;20190;-57
2023/05/25 09:25:19;;;;;;;16.20;5.70;;;;;;;19.25;53.14;97136.75;2071921;28;21123;-57
2023/05/25 09:26:21;;;;;;;15.75;6.20;;;;;;;18.85;53.85;97126.31;2074488;28;20222;-57
2023/05/25 09:27:22;;;;;;;24.30;6.50;;;;;;;18.61;55.04;97129.72;2076187;28;20247;-57
2023/05/25 09:28:24;;;;;;;17.15;6.75;;;;;;;18.84;54.39;97133.44;2075885;28;20871;-57
2023/05/25 09:29:28;;;;;;;17.60;6.88;;;;;;;19.20;54.03;97136.22;2074638;28;20686;-57
2023/05/25 09:30:31;;;;;;;23.67;6.60;;;;;;;19.46;53.25;97130.84;2076436;28;20205;-57
2023/05/25 09:31:33;;;;;;;19.98;6.82;;;;;;;19.46;52.44;97113.13;2075117;28;20194;-57
2023/05/25 09:32:35;;;;;;;19.85;6.45;;;;;;;19.39;52.48;97125.16;2075947;28;20252;-57
2023/05/25 09:33:38;;;;;;;17.13;6.28;;;;;;;19.45;53.11;97123.84;2076021;28;20281;-57
2023/05/25 09:34:44;;;;;;;17.45;6.35;;;;;;;19.49;53.26;97127.94;2075872;28;20226;-57
2023/05/25 09:35:46;;;;;;;21.83;6.32;;;;;;;19.32;53.21;97124.72;2076112;28;20397;-57
2023/05/25 09:36:48;;;;;;;20.05;6.57;;;;;;;19.49;53.21;97123.53;2075396;28;20280;-57
2023/05/25 09:37:53;;;;;;;20.73;5.80;;;;;;;19.69;53.33;97122.06;2075387;28;20745;-57
2023/05/25 09:38:55;;;;;;;25.70;6.18;;;;;;;19.83;52.78;97134.31;2075293;28;20324;-57
2023/05/25 09:39:57;;;;;;;14.38;5.70;;;;;;;19.38;53.59;97134.06;2075686;28;20308;-57
2023/05/25 09:40:58;;;;;;;27.00;7.18;;;;;;;19.86;52.07;97127.94;2075257;28;20205;-57
2023/05/25 09:42:01;;;;;;;19.20;6.75;;;;;;;19.91;51.71;97131.09;2077188;28;20259;-57
2023/05/25 09:43:03;;;;;;;22.25;7.07;;;;;;;20.04;52.18;97137.13;2071858;28;20198;-57
2023/05/25 09:44:06;;;;;;;20.52;6.57;;;;;;;20.52;51.66;97143.28;2071408;28;20214;-57
2023/05/25 09:45:12;;;;;;;17.27;5.85;;;;;;;20.68;50.80;97141.13;2075665;28;20193;-57
2023/05/25 09:46:14;;;;;;;15.35;6.20;;;;;;;20.51;51.60;97128.31;2076355;28;20639;-57
2023/05/25 09:47:16;;;;;;;18.88;5.43;;;;;;;20.38;52.85;97136.38;2073387;28;20210;-57
2023/05/25 09:48:20;;;;;;;21.45;5.70;;;;;;;20.75;50.69;97144.16;2075052;28;20316;-57
2023/05/25 09:49:21;;;;;;;16.38;5.82;;;;;;;20.86;51.39;97135.34;2074900;28;20735;-57
2023/05/25 09:50:25;;;;;;;17.50;6.38;;;;;;;20.70;51.00;97136.56;2075678;28;20553;-57
2023/05/25 09:51:29;;;;;;;23.17;6.85;;;;;;;20.35;51.12;97134.81;2076053;28;20585;-57
2023/05/25 09:52:31;;;;;;;15.45;6.18;;;;;;;19.35;52.74;97144.84;2071989;28;20202;-57
2023/05/25 09:53:33;;;;;;;22.60;6.80;;;;;;;19.20;53.51;97139.72;2073738;28;20229;-57
2023/05/25 09:54:36;;;;;;;22.48;6.47;;;;;;;19.69;53.17;97135.31;2074844;28;20264;-57
2023/05/25 09:55:38;;;;;;;20.23;6.55;;;;;;;20.49;51.54;97146.16;2075224;28;20742;-57
2023/05/25 09:56:54;;;;;;;14.20;5.45;;;;;;;20.77;51.87;97141.38;2075764;28;20638;-57
2023/05/25 09:57:56;;;;;;;20.00;6.68;;;;;;;20.29;51.15;97140.59;2071930;28;20201;-57
2023/05/25 09:58:58;;;;;;;15.35;6.22;;;;;;;20.34;52.16;97140.22;2075394;28;20206;-56
2023/05/25 09:59:59;;;;;;;16.67;6.65;;;;;;;20.47;51.85;97126.88;2074834;28;20222;-57
2023/05/25 10:01:00;;;;;;;14.35;5.68;;;;;;;20.44;51.33;97138.53;2075235;28;20267;-57
2023/05/25 10:02:02;;;;;;;14.55;6.35;;;;;;;20.37;51.42;97140.00;2075488;28;20280;-57
2023/05/25 10:03:06;;;;;;;18.00;5.93;;;;;;;20.52;52.19;97136.16;2071831;28;20198;-57
2023/05/25 10:04:08;;;;;;;15.32;6.32;;;;;;;20.37;51.81;97138.19;2074688;28;20201;-57
2023/05/25 10:05:09;;;;;;;22.20;7.35;;;;;;;20.68;51.05;97105.78;2075229;28;20616;-57
2023/05/25 10:06:13;;;;;;;16.35;6.30;;;;;;;20.91;50.79;97141.13;2075519;28;20285;-57
2023/05/25 10:07:16;;;;;;;17.90;6.00;;;;;;;21.00;50.97;97135.13;2074320;28;20283;-57
2023/05/25 10:08:20;;;;;;;19.02;5.40;;;;;;;21.27;50.76;97136.53;2075644;28;20324;-57
2023/05/25 10:09:24;;;;;;;16.67;6.95;;;;;;;21.73;50.04;97147.06;2075820;28;20244;-58
2023/05/25 10:10:27;;;;;;;16.90;5.25;;;;;;;21.73;49.22;97137.28;2075257;28;20194;-57
2023/05/25 10:11:28;;;;;;;21.15;7.28;;;;;;;21.84;49.58;97137.25;2074691;28;20288;-57
2023/05/25 10:12:31;;;;;;;18.63;6.13;;;;;;;21.39;49.58;97142.66;2074190;28;20199;-57
2023/05/25 10:13:32;;;;;;;15.75;6.28;;;;;;;21.60;50.01;97147.22;2071742;28;20281;-57
2023/05/25 10:14:37;;;;;;;19.65;5.80;;;;;;;21.29;49.46;97141.72;2072044;28;20226;-58
2023/05/25 10:15:41;;;;;;;16.30;6.05;;;;;;;21.42;49.59;97138.91;2074610;28;20650;-58
2023/05/25 10:16:48;;;;;;;15.82;5.82;;;;;;;21.37;50.47;97137.47;2071627;28;20222;-57
2023/05/25 10:17:54;;;;;;;17.95;6.00;;;;;;;20.91;49.68;97135.81;2071953;28;20198;-57
2023/05/25 10:19:14;;;;;;;16.63;6.15;;;;;;;20.76;51.01;97140.56;2071802;28;20199;-57
2023/05/25 10:20:17;;;;;;;13.43;5.70;;;;;;;20.10;52.70;97106.69;2075811;28;20586;-58
2023/05/25 10:21:21;;;;;;;17.98;5.43;;;;;;;20.49;52.90;97147.03;2074197;28;20198;-57
2023/05/25 10:22:30;;;;;;;23.92;6.25;;;;;;;20.67;51.80;97135.91;2074199;28;20298;-57
2023/05/25 10:23:37;;;;;;;15.45;6.15;;;;;;;21.28;51.59;97145.31;2073570;28;20265;-57
2023/05/25 10:24:44;;;;;;;23.52;5.80;;;;;;;21.07;51.62;97143.44;2073833;28;20244;-57
2023/05/25 10:25:54;;;;;;;24.73;6.68;;;;;;;21.07;51.21;97145.25;2074990;28;20765;-58
2023/05/25 10:26:58;;;;;;;16.05;5.95;;;;;;;20.83;50.91;97149.72;2075274;28;20224;-57
2023/05/25 10:28:20;;;;;;;19.98;6.82;;;;;;;20.46;52.08;97147.25;2076483;28;20194;-57
2023/05/25 10:29:23;;;;;;;16.90;6.55;;;;;;;20.80;51.66;97149.13;2075197;28;20221;-57
2023/05/25 10:30:26;;;;;;;19.50;7.78;;;;;;;20.67;51.39;97150.03;2073811;28;20198;-58
2023/05/25 10:31:29;;;;;;;16.05;5.93;;;;;;;20.49;52.00;97138.19;2073342;28;20292;-57
2023/05/25 10:32:33;;;;;;;19.45;6.85;;;;;;;20.56;51.74;97150.03;2073082;28;20808;-57
2023/05/25 10:33:36;;;;;;;18.63;6.25;;;;;;;21.07;51.49;97147.91;2075567;28;20198;-57
2023/05/25 10:34:37;;;;;;;12.18;6.00;;;;;;;21.11;51.39;97150.19;2071269;28;20768;-57
2023/05/25 10:35:42;;;;;;;11.45;5.75;;;;;;;21.07;50.99;97143.44;2074077;28;20252;-57
2023/05/25 10:37:04;;;;;;;24.02;6.82;;;;;;;21.24;50.53;97142.06;2074734;28;20283;-57
2023/05/25 10:38:07;;;;;;;17.42;6.78;;;;;;;21.36;50.36;97137.59;2074475;28;20206;-57
2023/05/25 10:39:09;;;;;;;14.88;6.22;;;;;;;21.73;49.46;97131.13;2073159;28;20202;-57
2023/05/25 10:40:12;;;;;;;21.90;6.30;;;;;;;21.59;49.74;97125.13;2073963;28;20260;-56
2023/05/25 10:41:14;;;;;;;18.77;6.20;;;;;;;21.63;49.98;97129.22;2071682;28;20205;-56
2023/05/25 10:42:17;;;;;;;16.23;6.15;;;;;;;21.86;49.20;97131.78;2072185;28;20205;-56
2023/05/25 10:43:20;;;;;;;19.25;6.97;;;;;;;21.94;49.16;97129.34;2075342;28;20818;-56
2023/05/25 10:44:22;;;;;;;17.73;6.47;;;;;;;22.43;48.89;97134.19;2074934;28;20309;-57
2023/05/25 10:45:24;;;;;;;20.13;6.28;;;;;;;22.47;49.16;97130.28;2071515;28;20550;-56
2023/05/25 10:46:27;;;;;;;15.60;5.85;;;;;;;22.52;47.94;97140.53;2073293;28;20195;-57
2023/05/25 10:47:29;;;;;;;20.13;6.90;;;;;;;22.29;48.20;97138.81;2076011;28;20218;-57
2023/05/25 10:48:39;;;;;;;13.05;5.15;;;;;;;22.01;48.83;97133.16;2075628;28;20230;-57
2023/05/25 10:49:52;;;;;;;17.05;6.30;;;;;;;21.39;51.13;97133.84;2074989;28;20217;-57
2023/05/25 10:50:54;;;;;;;22.33;7.00;;;;;;;22.19;49.53;97127.28;2073321;28;20198;-57
2023/05/25 10:51:58;;;;;;;21.35;6.10;;;;;;;22.76;48.25;97134.91;2074684;28;20647;-57
2023/05/25 10:53:02;;;;;;;15.93;7.00;;;;;;;22.46;46.94;97139.22;2075932;28;20261;-57
2023/05/25 10:54:04;;;;;;;17.02;6.28;;;;;;;22.66;47.42;97138.38;2074625;28;20236;-57
2023/05/25 10:55:06;;;;;;;15.45;5.53;;;;;;;22.65;47.20;97139.34;2073714;28;20198;-57
2023/05/25 10:56:09;;;;;;;23.13;6.22;;;;;;;22.89;47.58;97140.84;2075228;28;20209;-56
2023/05/25 10:57:16;;;;;;;16.60;5.55;;;;;;;22.79;48.24;97131.97;2075250;28;20192;-57
2023/05/25 10:58:20;;;;;;;15.90;5.60;;;;;;;22.71;47.79;97127.31;2075049;28;20223;-56
2023/05/25 10:59:26;;;;;;;13.27;6.10;;;;;;;22.80;48.52;97141.66;2074225;28;20783;-57
2023/05/25 11:00:30;;;;;;;17.45;6.32;;;;;;;22.57;48.18;97152.47;2073527;28;20211;-57
2023/05/25 11:01:35;;;;;;;12.57;5.53;;;;;;;22.52;48.41;97151.19;2073527;28;20348;-57
2023/05/25 11:02:52;;;;;;;26.27;5.55;;;;;;;22.50;47.77;97151.31;2072783;28;20201;-57
2023/05/25 11:03:56;;;;;;;16.70;5.70;;;;;;;21.88;49.19;97150.25;2074687;28;20262;-57
2023/05/25 11:05:30;;;;;;;15.98;6.78;;;;;;;21.89;48.93;97151.94;2074170;28;20230;-57
2023/05/25 11:06:42;;;;;;;11.40;4.40;;;;;;;22.13;48.83;97143.75;2075567;28;20212;-58
2023/05/25 11:07:54;;;;;;;15.65;5.72;;;;;;;21.60;49.71;97155.19;2074707;28;20190;-56
2023/05/25 11:09:05;;;;;;;17.92;5.13;;;;;;;21.62;50.08;97153.25;2075213;28;20247;-57
2023/05/25 11:10:07;;;;;;;15.98;5.53;;;;;;;21.74;50.09;97149.59;2071328;28;20236;-57
2023/05/25 11:11:08;;;;;;;15.60;6.20;;;;;;;22.06;49.09;97139.94;2075232;28;20209;-57
2023/05/25 11:12:21;;;;;;;12.32;5.80;;;;;;;22.35;49.18;97145.44;2074824;28;20418;-57
2023/05/25 11:13:36;;;;;;;10.95;6.10;;;;;;;22.22;48.94;97144.78;2075472;28;20706;-57
2023/05/25 11:14:41;;;;;;;11.55;5.85;;;;;;;21.46;48.98;97140.38;2074587;28;20233;-57
2023/05/25 11:15:43;;;;;;;14.10;6.15;;;;;;;22.04;48.69;97140.03;2075300;28;20205;-57
2023/05/25 11:17:03;;;;;;;19.33;6.07;;;;;;;22.79;47.08;97131.97;2075164;28;20197;-57
2023/05/25 11:18:13;;;;;;;17.85;5.82;;;;;;;22.81;47.71;97138.84;2075720;28;20199;-57
2023/05/25 11:19:15;;;;;;;11.25;4.93;;;;;;;22.32;48.67;97143.91;2073775;28;20211;-57
2023/05/25 11:20:26;;;;;;;16.85;6.35;;;;;;;22.89;47.48;97145.34;2071429;28;20391;-57
2023/05/25 11:21:29;;;;;;;14.48;5.72;;;;;;;23.06;47.00;97141.19;2075038;28;20209;-57
2023/05/25 11:22:31;;;;;;;18.05;5.60;;;;;;;22.91;47.54;97146.06;2074933;28;20232;-56
2023/05/25 11:23:50;;;;;;;13.82;6.30;;;;;;;23.39;46.22;97137.41;2074855;28;20647;-58
2023/05/25 11:24:52;;;;;;;20.33;6.10;;;;;;;23.54;46.23;97124.53;2074409;28;20684;-58
2023/05/25 11:26:04;;;;;;;16.67;5.47;;;;;;;23.60;45.41;97142.66;2074921;28;20202;-58
2023/05/25 11:27:07;;;;;;;20.05;6.10;;;;;;;23.12;46.94;97136.19;2074801;28;20207;-58
2023/05/25 11:28:10;;;;;;;14.10;6.43;;;;;;;22.91;47.60;97138.06;2071372;28;20209;-58
2023/05/25 11:29:14;;;;;;;14.20;5.40;;;;;;;22.59;48.16;97129.25;2071782;28;20213;-58
2023/05/25 11:30:19;;;;;;;17.27;6.55;;;;;;;22.60;48.30;97138.91;2074298;28;20293;-57
2023/05/25 11:31:27;;;;;;;20.15;5.53;;;;;;;22.70;48.75;97135.44;2071320;28;20221;-58
2023/05/25 11:32:29;;;;;;;19.10;5.50;;;;;;;22.56;48.25;97132.16;2072081;28;20205;-58
2023/05/25 11:33:31;;;;;;;15.75;5.22;;;;;;;22.48;48.61;97145.28;2074837;28;20204;-58
2023/05/25 11:34:32;;;;;;;13.30;5.90;;;;;;;22.57;47.87;97141.81;2074106;28;20597;-57
2023/05/25 11:35:37;;;;;;;21.17;6.22;;;;;;;22.78;47.68;97141.78;2071361;28;20276;-58
2023/05/25 11:36:38;;;;;;;18.17;6.20;;;;;;;22.67;47.65;97137.38;2072926;28;20243;-57
2023/05/25 11:37:41;;;;;;;18.60;5.75;;;;;;;22.58;48.71;97148.00;2073769;28;20204;-58
2023/05/25 11:38:44;;;;;;;12.43;5.43;;;;;;;22.43;47.93;97135.00;2072722;28;20210;-57
2023/05/25 11:40:06;;;;;;;17.13;5.68;;;;;;;22.05;49.39;97133.75;2074206;28;20285;-57
2023/05/25 11:41:15;;;;;;;11.10;5.55;;;;;;;22.20;49.14;97133.47;2071098;28;20257;-58
2023/05/25 11:42:21;;;;;;;66.50;33.63;;;;;;;22.62;49.23;97134.28;2075172;28;20205;-58
2023/05/25 11:43:25;;;;;;;37.28;19.27;;;;;;;22.71;48.57;97132.66;2075144;28;20581;-58
2023/05/25 11:44:32;;;;;;;33.25;18.80;;;;;;;22.75;47.33;97133.22;2074168;28;20220;-58
2023/05/25 11:45:36;;;;;;;18.10;6.25;;;;;;;22.27;49.09;97140.78;2075086;28;20334;-58
2023/05/25 11:46:37;;;;;;;17.83;5.72;;;;;;;22.17;49.36;97137.22;2071239;28;20269;-57
2023/05/25 11:47:39;;;;;;;20.50;5.72;;;;;;;22.21;49.35;97138.63;2071620;28;20222;-57
2023/05/25 11:48:48;;;;;;;13.35;4.90;;;;;;;22.46;48.45;97133.91;2071063;28;20208;-57
2023/05/25 11:49:50;;;;;;;15.27;5.20;;;;;;;22.46;48.65;97140.09;2072181;28;20332;-57
2023/05/25 11:51:05;;;;;;;19.38;5.65;;;;;;;22.38;48.87;97142.53;2074739;28;20610;-57
2023/05/25 11:52:07;;;;;;;18.55;8.38;;;;;;;22.21;48.59;97146.63;2073043;28;20197;-58
2023/05/25 11:53:09;;;;;;;87.15;55.38;;;;;;;22.21;48.21;97146.63;2075981;28;20208;-58
2023/05/25 11:54:20;;;;;;;48.50;32.13;;;;;;;22.50;48.55;97140.69;2073549;28;20285;-58
2023/05/25 11:55:22;;;;;;;85.50;47.65;;;;;;;22.49;47.50;97145.13;2071237;28;20206;-58
2023/05/25 11:56:23;;;;;;;30.60;14.57;;;;;;;22.47;47.56;97146.25;2072785;28;20239;-58
2023/05/25 11:57:36;;;;;;;15.57;5.68;;;;;;;22.28;47.24;97139.81;2074047;28;20236;-58
2023/05/25 11:58:38;;;;;;;16.77;4.75;;;;;;;22.39;47.32;97141.59;2076483;28;20250;-58
2023/05/25 11:59:40;;;;;;;16.83;4.78;;;;;;;22.59;47.84;97142.53;2074101;28;20233;-58
2023/05/25 12:00:41;;;;;;;13.80;5.63;;;;;;;22.61;48.56;97137.94;2073592;28;20226;-58
2023/05/25 12:01:53;;;;;;;19.23;5.68;;;;;;;22.23;48.57;97149.97;2074480;28;20267;-58
2023/05/25 12:02:56;;;;;;;16.17;5.30;;;;;;;22.25;47.63;97144.53;2074874;28;20208;-58
2023/05/25 12:04:07;;;;;;;14.13;5.30;;;;;;;21.96;48.61;97140.69;2074066;28;20209;-58
2023/05/25 12:05:10;;;;;;;13.13;5.45;;;;;;;22.02;49.11;97139.34;2070192;28;20218;-58
2023/05/25 12:06:28;;;;;;;16.63;5.78;;;;;;;22.24;49.06;97143.69;2070631;28;20292;-58
2023/05/25 12:07:32;;;;;;;18.73;5.40;;;;;;;22.50;48.23;97138.84;2073515;28;20200;-58
2023/05/25 12:08:35;;;;;;;12.50;5.13;;;;;;;22.24;48.17;97134.88;2074921;28;20211;-57
2023/05/25 12:09:36;;;;;;;22.02;5.50;;;;;;;22.23;48.26;97138.50;2074516;28;20761;-58
2023/05/25 12:10:50;;;;;;;13.07;4.70;;;;;;;22.18;48.40;97134.41;2074422;28;20684;-58
2023/05/25 12:11:52;;;;;;;19.70;5.70;;;;;;;22.49;47.96;97144.31;2074758;28;20255;-58
2023/05/25 12:12:59;;;;;;;15.77;4.38;;;;;;;22.64;48.47;97136.84;2075796;28;20209;-58
2023/05/25 12:14:03;;;;;;;15.27;5.72;;;;;;;22.11;48.72;97140.38;2074941;28;20208;-58
2023/05/25 12:15:05;;;;;;;11.25;4.85;;;;;;;22.31;48.07;97139.53;2075856;28;20201;-58
2023/05/25 12:16:07;;;;;;;10.18;4.80;;;;;;;22.40;49.06;97134.44;2076229;28;20243;-58
2023/05/25 12:17:09;;;;;;;14.50;5.38;;;;;;;21.81;49.19;97118.03;2076361;28;20657;-57